Ararat, Virginia
Current Conditions -  °F | °C
As of 7:15 PM on Monday 24 Nov 2014 (Local Time) from KMWK Reporting Station
Clear Clear  
Wind Chill: 64°   Ceiling: Unl
Heat Index: 64°   Visibility: 10mi
Dew Point: 54°   Wind: 6mph
Humidity: 69%   Direction: 200°SSW
Pressure: 29.83"   Gusts: NA
Location:  36.6°N, 80.51°W
Report Text: KMWK 250015Z AUTO 20005KT 10SM CLR 18/12 A2983 RMK AO2 T01800122
Loading
Personal Weather Stations






























Interactive Weather Map New forecast layout! Learn more

10-Day Weather Forecast

Advertisements
Track Severe Weather on mobile